Overview Statistics Trail Chart Weather Telemetry Raw packets
 

This is the latest recevied weather packets stored in our database for station/object KB1ZFK. If no packets are shown the sender has not sent any weather packets the latest 10 day(s).

<< 1 2 3 4 5 >>
Time Temp. Humidity Pressure Rain* Wind** Luminosity Snow
1788629846 22.78° C 69% 1010.4 hPa 0 mm - 289 W/m² -
1788629559 22.78° C 70% 1010.4 hPa 0 mm - 331 W/m² -
1788629241 22.22° C 71% 1010.6 hPa 0 mm - 828 W/m² -
1788628935 22.22° C 71% 1010.4 hPa 0 mm - 285 W/m² -
1788628631 22.78° C 75% 1010.5 hPa 0 mm - 311 W/m² -
1788628327 22.78° C 70% 1010.2 hPa 0 mm - 400 W/m² -
1788628024 22.78° C 73% 1010.5 hPa 0 mm - 441 W/m² -
1788627724 22.78° C 71% 1010.3 hPa 0 mm - 917 W/m² -
1788627424 22.78° C 74% 1010.4 hPa 0 mm - 303 W/m² -
1788627119 22.78° C 73% 1010.4 hPa 0 mm - 201 W/m² -
1788626814 22.22° C 77% 1010.4 hPa 0 mm - 777 W/m² -
1788626513 21.67° C 82% 1010.3 hPa 0 mm - 648 W/m² -
1788626209 20° C 89% 1010.7 hPa 0 mm - 225 W/m² -
1788625906 19.44° C 90% 1010.9 hPa 0 mm - 823 W/m² -
1788625602 18.89° C 90% 1010.8 hPa 0 mm - 159 W/m² -
1788625301 18.89° C 89% 1010.7 hPa 0 mm - 82 W/m² -
1788624995 18.89° C 89% 1010.8 hPa 0 mm - 52 W/m² -
1788624693 19.44° C 88% 1010.9 hPa 0 mm - 51 W/m² -
1788624393 19.44° C 87% 1010.6 hPa 0 mm - 74 W/m² -
1788624087 19.44° C 85% 1010.7 hPa 0 mm - 87 W/m² -
1788623781 20° C 81% 1010.8 hPa 0 mm - 62 W/m² -
1788623480 21.11° C 80% 1010.8 hPa 0 mm - 125 W/m² -
1788623174 21.11° C 75% 1010.7 hPa 0 mm - 213 W/m² -
1788622870 21.67° C 75% 1010.7 hPa 0 mm - 584 W/m² -
1788622566 21.67° C 76% 1010.7 hPa 0 mm - 420 W/m² -

* Rain latest hour (hover to see other rain measurements)
** Current wind speed in m/s (hover to see current wind gust speed)